createdAt,value
2018-04-27T00:01:32.701Z,4.80
2018-04-27T00:03:59.101Z,4.80
2018-04-27T00:06:25.847Z,4.80
2018-04-27T00:08:52.260Z,4.80
2018-04-27T00:11:18.728Z,4.80
2018-04-27T00:13:45.147Z,4.80
2018-04-27T00:16:11.611Z,4.70
2018-04-27T00:18:38.033Z,4.70
2018-04-27T00:21:04.503Z,4.80
2018-04-27T00:23:30.916Z,4.80
2018-04-27T00:25:57.480Z,4.90
2018-04-27T00:28:23.915Z,4.80
2018-04-27T00:30:50.297Z,4.80
2018-04-27T00:33:16.747Z,4.90
2018-04-27T00:35:43.895Z,4.80
2018-04-27T00:38:10.452Z,4.70
2018-04-27T00:40:36.879Z,4.80
2018-04-27T00:43:04.039Z,4.90
2018-04-27T00:45:30.598Z,4.90
2018-04-27T00:47:57.016Z,4.90
2018-04-27T00:50:23.576Z,4.90
2018-04-27T00:53:02.259Z,5.00
2018-04-27T00:55:28.681Z,5.00
2018-04-27T00:57:55.172Z,5.00
2018-04-27T01:00:21.670Z,5.00
2018-04-27T01:02:48.147Z,4.90
2018-04-27T01:05:14.707Z,4.90
2018-04-27T01:07:41.893Z,4.90
2018-04-27T01:10:08.304Z,4.90
2018-04-27T01:12:34.759Z,4.90
2018-04-27T01:15:01.216Z,5.00
2018-04-27T01:17:27.621Z,5.00
2018-04-27T01:19:54.076Z,4.90
2018-04-27T01:22:20.541Z,5.00
2018-04-27T01:24:46.976Z,4.90
2018-04-27T01:27:13.430Z,4.80
2018-04-27T01:29:39.853Z,4.90
2018-04-27T01:32:07.052Z,4.80
2018-04-27T01:34:33.471Z,4.80
2018-04-27T01:36:59.975Z,4.80
2018-04-27T01:39:27.236Z,4.80
2018-04-27T01:41:53.613Z,4.80
2018-04-27T01:44:20.093Z,4.70
2018-04-27T01:46:47.368Z,4.80
2018-04-27T01:49:13.756Z,4.70
2018-04-27T01:51:40.247Z,4.80
2018-04-27T01:54:06.620Z,4.80
2018-04-27T01:56:33.144Z,4.90
2018-04-27T01:58:59.541Z,4.80
2018-04-27T02:01:26.131Z,4.80
2018-04-27T02:03:53.273Z,4.80
2018-04-27T02:06:19.794Z,4.80
2018-04-27T02:08:46.179Z,4.90
2018-04-27T02:11:12.695Z,4.90
2018-04-27T02:13:39.087Z,4.90
2018-04-27T02:16:05.503Z,4.90
2018-04-27T02:18:31.923Z,5.00
2018-04-27T02:20:58.372Z,4.90
2018-04-27T02:23:24.824Z,4.80
2018-04-27T02:25:51.235Z,4.80
2018-04-27T02:28:17.651Z,4.70
2018-04-27T02:30:44.069Z,4.60
2018-04-27T02:33:10.503Z,4.60
2018-04-27T02:35:36.985Z,4.60
2018-04-27T02:38:03.449Z,4.60
2018-04-27T02:40:30.580Z,4.50
2018-04-27T02:42:57.736Z,4.40
2018-04-27T02:45:24.868Z,4.40
2018-04-27T02:47:51.288Z,4.40
2018-04-27T02:50:17.779Z,4.20
2018-04-27T02:52:44.174Z,4.00
2018-04-27T02:55:11.371Z,4.00
2018-04-27T02:57:37.836Z,4.00
2018-04-27T03:00:05.155Z,4.00
2018-04-27T03:02:31.661Z,4.10
2018-04-27T03:04:58.800Z,4.00
2018-04-27T03:07:25.984Z,4.10
2018-04-27T03:09:52.350Z,4.10
2018-04-27T03:12:18.824Z,4.10
2018-04-27T03:14:46.077Z,4.10
2018-04-27T03:17:12.495Z,4.10
2018-04-27T03:19:39.732Z,4.10
2018-04-27T03:22:06.301Z,4.00
2018-04-27T03:24:32.735Z,4.10
2018-04-27T03:26:59.374Z,4.10
2018-04-27T03:29:25.760Z,4.10
2018-04-27T03:31:52.616Z,4.10
2018-04-27T03:34:19.179Z,4.20
2018-04-27T03:36:45.536Z,4.20
2018-04-27T03:39:12.008Z,4.20
2018-04-27T03:44:34.692Z,4.40
2018-04-27T03:47:01.213Z,4.30
2018-04-27T03:49:27.715Z,4.20
2018-04-27T03:51:54.969Z,4.20
2018-04-27T03:54:22.006Z,4.20
2018-04-27T03:56:48.503Z,4.30
2018-04-27T03:59:14.994Z,4.30
2018-04-27T04:01:54.381Z,4.20
2018-04-27T04:04:33.107Z,4.20
2018-04-27T04:06:59.585Z,4.20
2018-04-27T04:09:26.800Z,4.20
2018-04-27T04:11:53.260Z,4.20
2018-04-27T04:14:20.467Z,4.20
2018-04-27T04:16:46.984Z,4.00
2018-04-27T04:19:13.503Z,4.10
2018-04-27T04:21:40.022Z,4.20
2018-04-27T04:24:07.329Z,4.20
2018-04-27T04:26:33.790Z,4.10
2018-04-27T04:29:00.249Z,4.20
2018-04-27T04:31:27.482Z,4.10
2018-04-27T04:33:53.901Z,4.10
2018-04-27T04:36:20.522Z,3.90
2018-04-27T04:38:47.012Z,4.10
2018-04-27T04:41:13.595Z,4.10
2018-04-27T04:43:40.085Z,4.10
2018-04-27T04:46:06.618Z,4.10
2018-04-27T04:48:33.083Z,4.20
2018-04-27T04:50:59.580Z,4.30
2018-04-27T04:53:26.801Z,4.50
2018-04-27T04:55:53.270Z,4.50
2018-04-27T04:58:19.778Z,4.60
2018-04-27T05:00:47.176Z,5.00
2018-04-27T05:03:13.843Z,5.00
2018-04-27T05:05:40.334Z,5.10
2018-04-27T05:08:07.049Z,5.30
2018-04-27T05:10:34.594Z,5.80
2018-04-27T05:13:01.002Z,5.70
2018-04-27T05:15:27.538Z,6.00
2018-04-27T05:17:54.047Z,6.20
2018-04-27T05:20:20.264Z,6.40
2018-04-27T05:22:46.737Z,6.60
2018-04-27T05:25:13.692Z,6.90
2018-04-27T05:27:40.335Z,7.00
2018-04-27T05:30:06.857Z,7.30
2018-04-27T05:32:33.986Z,7.60
2018-04-27T05:35:00.690Z,7.90
2018-04-27T05:40:23.518Z,9.00
2018-04-27T05:42:49.989Z,9.00
2018-04-27T05:45:17.242Z,9.80
2018-04-27T05:47:44.482Z,10.00
2018-04-27T05:50:11.773Z,10.10
2018-04-27T05:52:38.277Z,10.10
2018-04-27T05:55:05.499Z,10.00
2018-04-27T05:57:32.049Z,10.00
2018-04-27T05:59:58.589Z,10.30
2018-04-27T06:02:25.154Z,10.40
2018-04-27T06:04:51.663Z,10.80
2018-04-27T06:07:18.191Z,11.00
2018-04-27T06:09:44.690Z,11.00
2018-04-27T06:12:11.787Z,11.30
2018-04-27T06:14:38.977Z,11.00
2018-04-27T06:17:05.509Z,11.00
2018-04-27T06:19:32.005Z,11.20
2018-04-27T06:21:59.248Z,13.40
2018-04-27T06:24:25.768Z,13.40
2018-04-27T06:26:52.198Z,14.70
2018-04-27T06:29:18.778Z,16.50
2018-04-27T06:31:45.341Z,18.10
2018-04-27T06:34:13.144Z,20.30
2018-04-27T06:36:39.693Z,20.20
2018-04-27T06:39:06.142Z,21.00
2018-04-27T06:41:33.322Z,19.00
2018-04-27T06:44:00.045Z,18.90
2018-04-27T06:46:26.545Z,16.10
2018-04-27T06:48:53.123Z,14.90
2018-04-27T06:51:19.656Z,14.90
2018-04-27T06:53:46.078Z,15.20
2018-04-27T06:56:13.356Z,15.10
2018-04-27T06:58:39.789Z,15.10
2018-04-27T07:01:06.259Z,15.00
2018-04-27T07:03:32.716Z,14.60
2018-04-27T07:05:59.856Z,14.80
2018-04-27T07:08:26.377Z,14.70
2018-04-27T07:10:52.820Z,14.80
2018-04-27T07:13:19.534Z,14.80
2018-04-27T07:15:45.934Z,14.60
2018-04-27T07:18:12.432Z,14.70
2018-04-27T07:20:38.835Z,15.00
2018-04-27T07:23:05.281Z,14.70
2018-04-27T07:25:31.865Z,15.20
2018-04-27T07:27:58.310Z,15.10
2018-04-27T07:30:24.798Z,15.10
2018-04-27T07:32:51.564Z,15.20
2018-04-27T07:35:18.110Z,15.60
2018-04-27T07:37:44.586Z,16.10
2018-04-27T07:40:11.169Z,16.00
2018-04-27T07:42:38.432Z,16.00
2018-04-27T07:45:04.877Z,16.00
2018-04-27T07:47:31.453Z,15.60
2018-04-27T07:49:57.945Z,15.70
2018-04-27T07:52:24.475Z,15.00
2018-04-27T07:54:50.907Z,15.00
2018-04-27T07:57:17.485Z,15.10
2018-04-27T07:59:43.937Z,15.30
2018-04-27T08:02:10.451Z,15.40
2018-04-27T08:04:37.634Z,16.00
2018-04-27T08:07:04.915Z,16.30
2018-04-27T08:09:31.424Z,16.30
2018-04-27T08:11:58.609Z,15.20
2018-04-27T08:14:25.158Z,15.20
2018-04-27T08:16:51.637Z,15.60
2018-04-27T08:19:18.829Z,15.20
2018-04-27T08:21:45.420Z,15.20
2018-04-27T08:24:12.573Z,14.90
2018-04-27T08:26:39.863Z,15.00
2018-04-27T08:29:06.309Z,14.90
2018-04-27T08:31:32.758Z,15.10
2018-04-27T08:33:59.240Z,15.40
2018-04-27T08:36:26.469Z,15.80
2018-04-27T08:38:52.969Z,15.80
2018-04-27T08:41:19.451Z,15.80
2018-04-27T08:43:46.746Z,15.80
2018-04-27T08:46:13.160Z,15.80
2018-04-27T08:48:39.690Z,15.60
2018-04-27T08:51:06.163Z,15.30
2018-04-27T08:53:32.659Z,15.10
2018-04-27T08:55:59.142Z,15.00
2018-04-27T08:58:25.646Z,15.30
2018-04-27T09:00:52.157Z,15.80
2018-04-27T09:03:18.617Z,16.00
2018-04-27T09:05:45.115Z,15.70
2018-04-27T09:08:12.329Z,15.70
2018-04-27T09:10:38.957Z,15.70
2018-04-27T09:13:06.352Z,16.20
2018-04-27T09:15:34.266Z,16.80
2018-04-27T09:18:00.782Z,16.80
2018-04-27T09:20:27.313Z,16.10
2018-04-27T09:22:53.759Z,15.70
2018-04-27T09:25:20.397Z,16.10
2018-04-27T09:27:53.956Z,16.00
2018-04-27T09:30:20.415Z,16.40
2018-04-27T09:32:46.845Z,16.60
2018-04-27T09:35:14.272Z,16.10
2018-04-27T09:37:40.750Z,16.00
2018-04-27T09:40:07.209Z,16.00
2018-04-27T09:42:33.699Z,16.30
2018-04-27T09:45:00.873Z,16.90
2018-04-27T09:47:27.507Z,16.90
2018-04-27T09:49:53.997Z,17.00
2018-04-27T09:52:20.579Z,17.00
2018-04-27T09:54:47.124Z,17.30
2018-04-27T09:57:13.659Z,16.70
2018-04-27T09:59:40.352Z,17.00
2018-04-27T10:02:07.779Z,18.00
2018-04-27T10:04:34.267Z,18.00
2018-04-27T10:07:00.897Z,17.30
2018-04-27T10:09:27.359Z,17.70
2018-04-27T10:11:53.944Z,18.00
2018-04-27T10:14:21.326Z,17.70
2018-04-27T10:16:47.927Z,17.50
2018-04-27T10:19:14.447Z,18.50
2018-04-27T10:21:40.956Z,18.20
2018-04-27T10:24:07.498Z,17.80
2018-04-27T10:26:34.289Z,18.60
2018-04-27T10:29:01.689Z,18.10
2018-04-27T10:31:28.130Z,18.10
2018-04-27T10:33:54.768Z,18.20
2018-04-27T10:36:21.230Z,18.50
2018-04-27T10:38:47.820Z,18.60
2018-04-27T10:41:14.367Z,17.90
2018-04-27T10:43:40.855Z,18.30
2018-04-27T10:46:08.128Z,18.30
2018-04-27T10:48:34.652Z,18.30
2018-04-27T10:51:01.937Z,18.70
2018-04-27T10:53:28.568Z,18.70
2018-04-27T10:55:55.039Z,19.00
2018-04-27T10:58:21.493Z,19.50
2018-04-27T11:00:48.661Z,20.10
2018-04-27T11:03:15.221Z,19.20
2018-04-27T11:05:42.010Z,18.60
2018-04-27T11:08:08.559Z,19.10
2018-04-27T11:10:35.934Z,19.30
2018-04-27T11:13:02.368Z,19.30
2018-04-27T11:15:29.001Z,19.00
2018-04-27T11:17:55.453Z,19.20
2018-04-27T11:20:22.026Z,20.20
2018-04-27T11:22:48.449Z,20.10
2018-04-27T11:25:14.937Z,19.50
2018-04-27T11:27:42.190Z,19.40
2018-04-27T11:30:10.376Z,19.50
2018-04-27T11:32:37.535Z,19.50
2018-04-27T11:35:03.967Z,19.90
2018-04-27T11:37:33.987Z,20.20
2018-04-27T11:40:00.449Z,21.30
2018-04-27T11:42:27.389Z,22.00
2018-04-27T11:44:53.919Z,20.60
2018-04-27T11:47:21.093Z,19.10
2018-04-27T11:49:47.664Z,19.10
2018-04-27T11:52:22.005Z,19.70
2018-04-27T11:54:48.465Z,19.70
2018-04-27T11:57:15.100Z,19.90
2018-04-27T11:59:41.579Z,20.30
2018-04-27T12:02:08.929Z,21.70
2018-04-27T12:04:36.177Z,21.80
2018-04-27T12:07:03.366Z,21.90
2018-04-27T12:09:31.806Z,21.80
2018-04-27T12:11:58.686Z,22.10
2018-04-27T12:14:25.193Z,21.80
2018-04-27T12:16:52.494Z,21.90
2018-04-27T12:19:19.575Z,21.80
2018-04-27T12:21:46.004Z,21.50
2018-04-27T12:24:12.485Z,21.50
2018-04-27T12:26:38.981Z,22.20
2018-04-27T12:29:05.447Z,23.00
2018-04-27T12:31:32.038Z,23.60
2018-04-27T12:33:59.171Z,23.30
2018-04-27T12:36:25.641Z,23.30
2018-04-27T12:38:52.997Z,23.30
2018-04-27T12:41:19.526Z,23.30
2018-04-27T12:43:46.799Z,22.10
2018-04-27T12:46:13.598Z,22.10
2018-04-27T12:48:42.500Z,21.90
2018-04-27T12:51:09.208Z,22.60
2018-04-27T12:53:36.105Z,22.40
2018-04-27T12:56:03.327Z,23.80
2018-04-27T12:58:29.887Z,23.80
2018-04-27T13:00:57.088Z,23.70
2018-04-27T13:03:23.830Z,23.60
2018-04-27T13:05:50.504Z,23.60
2018-04-27T13:08:17.173Z,24.30
2018-04-27T13:10:43.972Z,25.50
2018-04-27T13:13:10.575Z,26.60
2018-04-27T13:15:37.144Z,26.30
2018-04-27T13:18:03.914Z,27.30
2018-04-27T13:20:31.211Z,25.90
2018-04-27T13:22:59.184Z,25.90
2018-04-27T13:25:25.811Z,26.50
2018-04-27T13:27:52.766Z,27.00
2018-04-27T13:30:21.363Z,26.70
2018-04-27T13:32:47.811Z,27.90
2018-04-27T13:35:14.312Z,29.30
2018-04-27T13:37:40.785Z,29.80
2018-04-27T13:40:07.449Z,30.00
2018-04-27T13:42:34.689Z,27.10
2018-04-27T13:45:02.065Z,27.40
2018-04-27T13:47:28.606Z,27.40
2018-04-27T13:49:55.395Z,27.90
2018-04-27T13:52:22.002Z,28.80
2018-04-27T13:54:48.551Z,29.30
2018-04-27T13:57:15.187Z,28.70
2018-04-27T13:59:41.670Z,27.10
2018-04-27T14:02:08.957Z,27.80
2018-04-27T14:04:35.506Z,27.80
2018-04-27T14:07:01.996Z,27.90
2018-04-27T14:09:29.352Z,28.50
2018-04-27T14:11:56.757Z,29.90
2018-04-27T14:14:23.383Z,29.90
2018-04-27T14:16:49.875Z,31.80
2018-04-27T14:19:17.085Z,29.80
2018-04-27T14:21:43.825Z,29.70
2018-04-27T14:24:10.353Z,29.10
2018-04-27T14:26:36.932Z,30.50
2018-04-27T14:29:04.321Z,32.20
2018-04-27T14:31:31.050Z,32.20
2018-04-27T14:33:57.583Z,30.70
2018-04-27T14:36:24.157Z,29.80
2018-04-27T14:38:50.634Z,28.30
2018-04-27T14:41:17.912Z,28.80
2018-04-27T14:43:44.515Z,28.80
2018-04-27T14:46:11.793Z,28.90
2018-04-27T14:48:38.336Z,28.90
2018-04-27T14:51:04.878Z,29.80
2018-04-27T14:53:31.361Z,30.70
2018-04-27T14:55:57.895Z,30.80
2018-04-27T14:58:24.382Z,30.80
2018-04-27T15:00:51.802Z,31.60
2018-04-27T15:03:18.388Z,29.70
2018-04-27T15:05:44.918Z,28.30
2018-04-27T15:08:11.371Z,28.10
2018-04-27T15:10:37.885Z,27.50
2018-04-27T15:13:04.400Z,28.10
2018-04-27T15:15:31.179Z,29.20
2018-04-27T15:17:57.651Z,30.10
2018-04-27T15:20:24.917Z,32.10
2018-04-27T15:22:52.155Z,32.00
2018-04-27T15:25:18.729Z,32.00
2018-04-27T15:27:45.175Z,32.50
2018-04-27T15:30:11.764Z,30.20
2018-04-27T15:32:38.977Z,28.40
2018-04-27T15:35:05.422Z,28.40
2018-04-27T15:37:31.993Z,29.20
2018-04-27T15:39:59.223Z,31.60
2018-04-27T15:42:25.665Z,31.50
2018-04-27T15:44:53.063Z,28.20
2018-04-27T15:47:19.570Z,28.10
2018-04-27T15:49:46.010Z,27.90
2018-04-27T15:52:12.476Z,28.30
2018-04-27T15:54:39.051Z,28.00
2018-04-27T15:57:05.583Z,27.90
2018-04-27T15:59:32.139Z,28.00
2018-04-27T16:01:59.417Z,28.70
2018-04-27T16:04:26.532Z,28.60
2018-04-27T16:06:53.947Z,28.30
2018-04-27T16:09:20.535Z,28.30
2018-04-27T16:11:47.046Z,26.00
2018-04-27T16:14:13.489Z,24.70
2018-04-27T16:16:40.944Z,23.70
2018-04-27T16:19:08.215Z,23.50
2018-04-27T16:21:35.566Z,23.10
2018-04-27T16:24:03.433Z,23.00
2018-04-27T16:26:29.986Z,23.00
2018-04-27T16:28:56.495Z,22.90
2018-04-27T16:31:23.741Z,22.30
2018-04-27T16:33:50.948Z,22.20
2018-04-27T16:36:17.417Z,22.20
2018-04-27T16:38:43.891Z,22.00
2018-04-27T16:41:10.405Z,22.00
2018-04-27T16:43:37.755Z,21.60
2018-04-27T16:46:04.222Z,21.60
2018-04-27T16:48:30.696Z,21.40
2018-04-27T16:50:57.183Z,21.20
2018-04-27T16:53:23.793Z,21.10
2018-04-27T16:55:51.188Z,21.00
2018-04-27T16:58:17.865Z,21.00
2018-04-27T17:00:44.362Z,21.00
2018-04-27T17:03:10.862Z,20.90
2018-04-27T17:05:38.150Z,20.80
2018-04-27T17:08:04.671Z,20.80
2018-04-27T17:10:31.268Z,20.80
2018-04-27T17:12:57.844Z,20.80
2018-04-27T17:15:24.301Z,20.70
2018-04-27T17:17:51.017Z,20.60
2018-04-27T17:20:17.595Z,20.60
2018-04-27T17:22:44.850Z,20.60
2018-04-27T17:25:11.286Z,20.60
2018-04-27T17:27:38.555Z,20.60
2018-04-27T17:30:05.111Z,20.50
2018-04-27T17:32:32.313Z,20.30
2018-04-27T17:34:58.781Z,20.30
2018-04-27T17:37:26.041Z,20.10
2018-04-27T17:39:53.381Z,20.00
2018-04-27T17:42:20.709Z,19.90
2018-04-27T17:44:47.292Z,19.90
2018-04-27T17:47:13.806Z,19.80
2018-04-27T17:49:40.296Z,19.60
2018-04-27T17:52:06.839Z,19.60
2018-04-27T17:54:33.443Z,19.50
2018-04-27T17:56:59.893Z,19.30
2018-04-27T17:59:26.467Z,19.20
2018-04-27T18:01:52.970Z,19.10
2018-04-27T18:04:19.589Z,18.90
2018-04-27T18:06:46.061Z,18.80
2018-04-27T18:09:12.569Z,18.70
2018-04-27T18:11:39.033Z,18.60
2018-04-27T18:14:05.567Z,18.50
2018-04-27T18:16:32.244Z,18.40
2018-04-27T18:18:59.471Z,18.20
2018-04-27T18:21:26.007Z,18.20
2018-04-27T18:23:52.518Z,18.10
2018-04-27T18:26:19.238Z,18.00
2018-04-27T18:28:46.640Z,18.00
2018-04-27T18:31:13.094Z,17.90
2018-04-27T18:33:40.384Z,17.90
2018-04-27T18:36:06.950Z,17.90
2018-04-27T18:38:33.483Z,17.90
2018-04-27T18:41:00.020Z,17.90
2018-04-27T18:43:26.486Z,17.90
2018-04-27T18:45:53.730Z,17.60
2018-04-27T18:48:20.942Z,17.50
2018-04-27T18:50:51.143Z,17.50
2018-04-27T18:53:17.612Z,17.50
2018-04-27T18:55:44.214Z,17.50
2018-04-27T18:58:12.493Z,17.50
2018-04-27T19:00:38.963Z,17.40
2018-04-27T19:03:05.521Z,17.20
2018-04-27T19:05:31.981Z,16.90
2018-04-27T19:07:58.473Z,16.70
2018-04-27T19:10:29.779Z,16.70
2018-04-27T19:12:56.365Z,16.70
2018-04-27T19:15:23.632Z,16.50
2018-04-27T19:17:56.205Z,16.40
2018-04-27T19:20:23.290Z,16.50
2018-04-27T19:22:49.870Z,16.40
2018-04-27T19:25:17.233Z,16.30
2018-04-27T19:27:44.437Z,16.10
2018-04-27T19:30:10.993Z,16.00
2018-04-27T19:32:37.550Z,15.90
2018-04-27T19:35:04.062Z,15.80
2018-04-27T19:37:34.569Z,15.90
2018-04-27T19:40:01.170Z,15.90
2018-04-27T19:42:28.422Z,15.90
2018-04-27T19:44:55.668Z,15.90
2018-04-27T19:47:22.205Z,15.90
2018-04-27T19:49:49.599Z,15.80
2018-04-27T19:52:16.256Z,15.80
2018-04-27T19:54:42.891Z,15.70
2018-04-27T19:57:09.405Z,15.50
2018-04-27T19:59:36.812Z,15.30
2018-04-27T20:02:04.273Z,14.80
2018-04-27T20:04:31.629Z,14.80
2018-04-27T20:06:59.066Z,14.90
2018-04-27T20:09:25.629Z,14.90
2018-04-27T20:11:52.197Z,14.50
2018-04-27T20:14:29.413Z,14.50
2018-04-27T20:16:56.345Z,14.50
2018-04-27T20:19:22.797Z,14.50
2018-04-27T20:21:49.274Z,14.50
2018-04-27T20:34:00.794Z,14.30
2018-04-27T20:36:28.062Z,13.70
2018-04-27T20:38:55.261Z,13.60
2018-04-27T20:41:22.662Z,13.50
2018-04-27T20:43:49.886Z,13.40
2018-04-27T20:46:16.511Z,13.40
2018-04-27T20:48:43.753Z,13.30
2018-04-27T20:51:10.225Z,13.20
2018-04-27T20:53:41.786Z,13.10
2018-04-27T20:56:08.952Z,13.00
2018-04-27T20:58:35.433Z,13.00
2018-04-27T21:01:01.908Z,13.00
2018-04-27T21:03:29.882Z,12.90
2018-04-27T21:05:57.154Z,12.90
2018-04-27T21:08:23.662Z,12.80
2018-04-27T21:10:51.018Z,12.70
2018-04-27T21:13:18.261Z,12.70
2018-04-27T21:15:45.537Z,12.70
2018-04-27T21:18:14.777Z,12.70
2018-04-27T21:20:41.231Z,12.70
2018-04-27T21:23:07.741Z,12.70
2018-04-27T21:25:34.193Z,12.60
2018-04-27T21:28:02.780Z,12.60
2018-04-27T21:30:29.195Z,12.60
2018-04-27T21:33:03.597Z,12.60
2018-04-27T21:38:48.628Z,12.50
2018-04-27T21:41:18.913Z,12.40
2018-04-27T21:43:45.388Z,12.30
2018-04-27T21:46:11.812Z,12.20
2018-04-27T21:48:38.303Z,12.10
2018-04-27T21:51:04.789Z,12.10
2018-04-27T21:53:31.219Z,12.00
2018-04-27T21:55:57.788Z,12.10
2018-04-27T21:58:24.522Z,12.60
2018-04-27T22:00:52.074Z,13.60
2018-04-27T22:03:19.264Z,14.20
2018-04-27T22:08:54.023Z,15.60
2018-04-27T22:11:40.010Z,15.80
2018-04-27T22:14:07.409Z,15.80
2018-04-27T22:16:35.830Z,16.00
2018-04-27T22:19:02.295Z,16.00
2018-04-27T22:21:28.937Z,16.00
2018-04-27T22:24:02.265Z,16.10
2018-04-27T22:26:29.489Z,16.00
2018-04-27T22:28:58.024Z,16.00
2018-04-27T22:31:25.456Z,16.00
2018-04-27T22:33:53.417Z,15.80
2018-04-27T22:36:25.526Z,15.60
2018-04-27T22:38:53.925Z,15.60
2018-04-27T22:41:20.572Z,15.50
2018-04-27T22:43:47.098Z,15.40
2018-04-27T22:46:13.683Z,15.30
2018-04-27T22:48:42.836Z,15.00
2018-04-27T22:54:06.144Z,14.80
2018-04-27T22:59:32.641Z,14.60
2018-04-27T23:02:02.730Z,14.50
2018-04-27T23:04:29.923Z,14.40
2018-04-27T23:06:56.401Z,14.40
2018-04-27T23:09:22.898Z,14.40
2018-04-27T23:11:49.407Z,14.50
2018-04-27T23:14:22.628Z,14.50
2018-04-27T23:16:52.821Z,14.50
2018-04-27T23:19:19.281Z,14.50
2018-04-27T23:21:57.694Z,14.60
2018-04-27T23:24:24.269Z,14.60
2018-04-27T23:26:51.664Z,14.60
2018-04-27T23:29:18.270Z,14.60
2018-04-27T23:31:44.784Z,14.60
2018-04-27T23:34:11.353Z,14.60
2018-04-27T23:36:38.541Z,14.60
2018-04-27T23:39:05.166Z,14.60
2018-04-27T23:41:31.806Z,14.50
2018-04-27T23:43:58.238Z,14.30
2018-04-27T23:46:24.786Z,14.10
2018-04-27T23:48:51.238Z,13.90
2018-04-27T23:51:17.717Z,13.70
2018-04-27T23:53:44.132Z,13.60
2018-04-27T23:56:11.305Z,13.40
2018-04-27T23:58:37.906Z,13.40
